Time;durP1;ratioP1;P1;durP2;ratioP2;P2;SDS_P1;SDS_P2;PMS_P1;PMS_P2;Temp;Humidity;BMP_temperature;BMP_pressure;BME280_temperature;BME280_humidity;BME280_pressure;Samples;Min_cycle;Max_cycle;Signal;HPM_P1;HPM_P2
2022/02/12 00:02:27;;;;;;;10.73;3.77;;;;;;;7.05;48.53;99572.66;8347040;28;20258;-63
2022/02/12 00:06:31;;;;;;;9.00;3.47;;;;;;;7.16;48.76;99567.44;8347789;28;20537;-63
2022/02/12 00:10:34;;;;;;;12.93;4.30;;;;;;;6.99;48.81;99568.38;8347498;28;20224;-63
2022/02/12 00:14:37;;;;;;;13.63;4.13;;;;;;;6.83;49.21;99564.16;8347817;28;20245;-63
2022/02/12 00:18:40;;;;;;;14.23;4.67;;;;;;;6.88;49.29;99564.16;8347907;28;20430;-63
2022/02/12 00:22:45;;;;;;;13.00;4.10;;;;;;;6.79;49.43;99563.28;8347501;28;20247;-63
2022/02/12 00:26:48;;;;;;;10.53;4.30;;;;;;;6.82;49.18;99558.16;8347452;28;20240;-63
2022/02/12 00:30:51;;;;;;;11.43;4.20;;;;;;;6.80;49.17;99559.88;8347562;28;20262;-63
2022/02/12 00:34:54;;;;;;;11.53;4.20;;;;;;;6.89;48.61;99550.38;8347308;28;20239;-64
2022/02/12 00:38:59;;;;;;;8.07;4.10;;;;;;;6.75;49.23;99543.56;8347560;28;20251;-64
2022/02/12 00:43:03;;;;;;;9.27;4.07;;;;;;;6.67;49.15;99549.63;8350852;28;20294;-63
2022/02/12 00:47:08;;;;;;;9.93;4.00;;;;;;;6.76;49.11;99552.16;8353924;28;20232;-63
2022/02/12 00:51:13;;;;;;;13.30;4.10;;;;;;;6.73;48.78;99550.44;8354330;28;20285;-65
2022/02/12 00:55:18;;;;;;;12.23;4.67;;;;;;;6.71;49.06;99543.59;8353847;28;20232;-64
2022/02/12 00:59:21;;;;;;;13.27;4.17;;;;;;;6.54;49.18;99536.78;8353964;28;20232;-63
2022/02/12 01:03:24;;;;;;;10.57;4.00;;;;;;;6.52;49.20;99535.94;8353530;28;20236;-64
2022/02/12 01:07:27;;;;;;;12.30;4.30;;;;;;;6.50;49.40;99535.06;8353653;28;20235;-64
2022/02/12 01:11:31;;;;;;;8.47;4.07;;;;;;;6.35;49.38;99533.41;8353500;28;20535;-63
2022/02/12 01:15:35;;;;;;;12.77;4.10;;;;;;;6.45;49.35;99535.09;8352950;28;20415;-64
2022/02/12 01:19:38;;;;;;;12.93;4.53;;;;;;;6.38;49.09;99533.41;8353101;28;20239;-64
2022/02/12 01:23:41;;;;;;;11.27;4.60;;;;;;;6.26;49.36;99526.56;8352721;28;20240;-63
2022/02/12 01:27:45;;;;;;;11.17;4.37;;;;;;;6.21;49.23;99527.44;8352917;28;20240;-64
2022/02/12 01:31:48;;;;;;;10.93;4.37;;;;;;;6.22;49.83;99519.69;8352422;28;20247;-64
2022/02/12 01:35:51;;;;;;;12.33;4.70;;;;;;;6.17;49.75;99515.41;8352286;28;20303;-64
2022/02/12 01:39:56;;;;;;;13.33;4.40;;;;;;;6.13;49.66;99524.88;8352586;28;20274;-64
2022/02/12 01:44:08;;;;;;;12.40;4.37;;;;;;;6.17;49.48;99516.28;8353297;28;20240;-63
2022/02/12 01:48:13;;;;;;;9.97;4.30;;;;;;;6.00;49.74;99515.47;8354234;28;20248;-63
2022/02/12 01:52:16;;;;;;;13.50;4.67;;;;;;;6.09;49.54;99510.28;8353970;28;20524;-64
2022/02/12 01:56:20;;;;;;;10.70;4.90;;;;;;;6.04;49.75;99517.16;8353287;28;20200;-64
2022/02/12 02:00:24;;;;;;;11.47;5.17;;;;;;;5.98;49.74;99505.16;8352574;28;20236;-64
2022/02/12 02:04:28;;;;;;;11.97;4.80;;;;;;;5.99;49.70;99501.72;8351686;28;20244;-63
2022/02/12 02:08:31;;;;;;;12.03;4.73;;;;;;;5.97;49.87;99500.88;8342949;28;20231;-66
2022/02/12 02:12:34;;;;;;;8.13;4.03;;;;;;;5.85;50.07;99514.56;8351434;28;20248;-64
2022/02/12 02:16:40;;;;;;;10.10;4.40;;;;;;;5.83;49.86;99513.72;8351477;28;20243;-64
2022/02/12 02:20:43;;;;;;;8.17;4.07;;;;;;;6.01;49.21;99500.00;8351547;28;20421;-63
2022/02/12 02:24:47;;;;;;;7.00;3.57;;;;;;;5.97;49.17;99500.88;8350805;28;20255;-63
2022/02/12 02:28:50;;;;;;;11.20;3.83;;;;;;;5.76;49.93;99501.72;8351176;28;20239;-64
2022/02/12 02:32:53;;;;;;;9.47;3.70;;;;;;;5.96;48.86;99501.75;8351226;28;20231;-63
2022/02/12 02:36:56;;;;;;;9.57;3.77;;;;;;;5.58;49.68;99496.56;8351025;28;20428;-64
2022/02/12 02:41:00;;;;;;;10.60;3.87;;;;;;;5.49;50.13;99500.00;8350549;28;20235;-64
2022/02/12 02:45:03;;;;;;;10.87;4.30;;;;;;;5.68;50.03;99499.16;8350779;28;20331;-63
2022/02/12 02:49:06;;;;;;;10.10;4.13;;;;;;;5.53;50.09;99494.00;8350754;28;20236;-63
2022/02/12 02:57:30;;;;;;;8.90;3.80;;;;;;;5.57;50.05;99497.44;8350223;28;20236;-63
2022/02/12 03:01:35;;;;;;;10.20;4.00;;;;;;;5.39;49.89;99496.56;8349935;28;20527;-63
2022/02/12 03:05:40;;;;;;;9.07;4.00;;;;;;;5.42;50.00;99498.28;8349522;28;20411;-64
2022/02/12 03:09:42;;;;;;;9.67;3.90;;;;;;;5.19;50.39;99503.38;8350170;28;20547;-63
2022/02/12 03:13:48;;;;;;;13.77;4.30;;;;;;;5.15;50.96;99506.81;8349662;28;20243;-63
2022/02/12 03:17:50;;;;;;;10.57;4.33;;;;;;;5.20;50.44;99500.84;8349512;28;20303;-64
2022/02/12 03:21:53;;;;;;;10.60;4.20;;;;;;;5.13;50.81;99503.38;8349526;28;20254;-63
2022/02/12 03:25:56;;;;;;;8.20;4.13;;;;;;;5.15;49.99;99505.09;8349407;28;20240;-63
2022/02/12 03:30:01;;;;;;;10.30;3.90;;;;;;;5.20;49.94;99497.41;8349261;28;20232;-63
2022/02/12 03:34:03;;;;;;;10.93;4.20;;;;;;;5.04;50.03;99501.63;8348843;28;20232;-63
2022/02/12 03:38:09;;;;;;;7.77;4.00;;;;;;;5.09;50.13;99502.50;8349185;28;20250;-63
2022/02/12 03:42:12;;;;;;;11.77;4.63;;;;;;;5.03;49.88;99505.06;8349078;28;20228;-63
2022/02/12 03:46:16;;;;;;;10.43;4.70;;;;;;;4.98;50.34;99499.91;8348681;28;20240;-64
2022/02/12 03:50:19;;;;;;;12.33;4.57;;;;;;;4.93;50.07;99504.19;8348913;28;20235;-63
2022/02/12 03:54:22;;;;;;;11.17;4.83;;;;;;;4.98;50.14;99509.34;8348995;28;20232;-63
2022/02/12 03:58:25;;;;;;;11.67;4.57;;;;;;;4.88;49.97;99508.44;8348942;28;20247;-63
2022/02/12 04:02:30;;;;;;;11.40;4.67;;;;;;;4.84;50.50;99499.03;8348523;28;20240;-63
2022/02/12 04:06:33;;;;;;;8.63;4.07;;;;;;;4.76;50.36;99500.69;8348067;28;20542;-63
2022/02/12 04:10:36;;;;;;;12.13;4.43;;;;;;;4.93;50.51;99482.78;8348452;28;20549;-64
2022/02/12 04:14:39;;;;;;;10.63;4.10;;;;;;;4.91;50.12;99490.47;8348454;28;20243;-64
2022/02/12 04:18:43;;;;;;;9.70;4.37;;;;;;;4.95;49.85;99484.53;8347607;28;20535;-64
2022/02/12 04:22:47;;;;;;;11.67;4.27;;;;;;;4.81;49.93;99492.16;8348152;28;20416;-64
2022/02/12 04:26:50;;;;;;;12.33;4.73;;;;;;;4.74;50.20;99487.00;8348064;28;20247;-64
2022/02/12 04:30:54;;;;;;;11.40;4.73;;;;;;;4.71;50.02;99485.28;8347927;28;20228;-64
2022/02/12 04:34:59;;;;;;;10.67;4.30;;;;;;;4.67;49.79;99491.28;8347482;28;20232;-64
2022/02/12 04:39:04;;;;;;;12.93;5.00;;;;;;;4.75;49.85;99496.44;8347859;28;20235;-64
2022/02/12 04:43:07;;;;;;;11.93;5.53;;;;;;;4.82;49.73;99493.88;8347644;28;20236;-64
2022/02/12 04:47:10;;;;;;;13.23;4.80;;;;;;;4.77;49.56;99493.00;8347231;28;20236;-64
2022/02/12 04:51:15;;;;;;;9.90;4.50;;;;;;;4.84;48.95;99491.31;8347370;28;20252;-64
2022/02/12 04:55:18;;;;;;;9.07;4.43;;;;;;;4.73;49.67;99493.00;8347351;28;20535;-64
2022/02/12 04:59:21;;;;;;;10.53;4.30;;;;;;;4.79;49.63;99488.72;8347286;28;20232;-64
2022/02/12 05:03:24;;;;;;;8.07;4.40;;;;;;;4.90;49.72;99486.22;8346938;28;20236;-64
2022/02/12 05:07:28;;;;;;;8.97;4.00;;;;;;;4.77;49.79;99482.75;8347134;28;20235;-64
2022/02/12 05:11:31;;;;;;;7.97;4.73;;;;;;;4.56;49.88;99491.22;8346786;28;20228;-65
2022/02/12 05:15:37;;;;;;;9.63;4.70;;;;;;;4.54;50.30;99495.47;8346911;28;20243;-64
2022/02/12 05:19:40;;;;;;;8.97;3.90;;;;;;;4.52;50.41;99481.78;8346826;28;20525;-64
2022/02/12 05:23:45;;;;;;;14.00;4.50;;;;;;;4.66;50.21;99480.16;8346905;28;20233;-64
2022/02/12 05:27:48;;;;;;;9.10;4.33;;;;;;;4.62;49.79;99477.56;8346937;28;20435;-64
2022/02/12 05:31:51;;;;;;;11.63;4.47;;;;;;;3.96;51.50;99472.97;8352568;28;20414;-64
2022/02/12 05:35:54;;;;;;;11.13;4.30;;;;;;;4.25;50.73;99467.13;8352741;28;20422;-64
2022/02/12 05:39:59;;;;;;;11.33;4.60;;;;;;;4.13;51.11;99457.66;8352820;28;20483;-64
2022/02/12 05:44:02;;;;;;;13.73;5.03;;;;;;;4.52;50.22;99451.00;8352812;28;20235;-64
2022/02/12 05:48:05;;;;;;;9.30;5.00;;;;;;;4.03;51.66;99450.78;8352168;28;20232;-64
2022/02/12 05:52:08;;;;;;;12.70;5.03;;;;;;;4.28;51.02;99439.81;8352201;28;20232;-64
2022/02/12 05:56:12;;;;;;;11.17;5.17;;;;;;;4.48;50.48;99436.47;8352036;28;20427;-64
2022/02/12 06:00:16;;;;;;;9.17;4.63;;;;;;;4.52;50.33;99432.19;8352458;28;20232;-64
2022/02/12 06:04:19;;;;;;;9.77;4.60;;;;;;;4.47;50.41;99438.16;8351833;28;20423;-64
2022/02/12 06:08:22;;;;;;;9.60;4.80;;;;;;;4.40;49.90;99428.72;8351906;28;20414;-64
2022/02/12 06:12:28;;;;;;;10.60;5.07;;;;;;;4.52;50.39;99420.22;8351870;28;20248;-63
2022/02/12 06:16:31;;;;;;;11.73;5.13;;;;;;;4.41;50.16;99420.16;8350828;28;20232;-65
2022/02/12 06:20:34;;;;;;;13.33;5.10;;;;;;;4.47;50.63;99419.34;8351137;28;20228;-64
2022/02/12 06:24:37;;;;;;;9.07;4.77;;;;;;;4.46;50.68;99422.78;8351322;28;20236;-64
2022/02/12 06:28:41;;;;;;;10.37;6.30;;;;;;;4.56;49.98;99415.97;8351188;28;20232;-65
2022/02/12 06:32:44;;;;;;;10.20;5.30;;;;;;;4.19;50.79;99421.81;8351095;28;20232;-64
2022/02/12 06:36:47;;;;;;;10.23;5.10;;;;;;;4.25;50.96;99424.38;8350651;28;20232;-64
2022/02/12 06:40:50;;;;;;;9.80;5.23;;;;;;;3.99;51.10;99433.66;8350553;28;20442;-64
2022/02/12 06:44:54;;;;;;;13.40;5.60;;;;;;;4.11;51.04;99423.44;8350864;28;20232;-64
2022/02/12 06:48:58;;;;;;;9.87;4.80;;;;;;;4.16;50.89;99421.78;8350629;28;20232;-64
2022/02/12 06:53:01;;;;;;;11.67;5.87;;;;;;;3.98;51.72;99424.25;8350319;28;20232;-64
2022/02/12 06:57:04;;;;;;;16.30;7.30;;;;;;;4.01;51.25;99425.13;8350096;28;20239;-64
2022/02/12 07:01:08;;;;;;;14.63;7.90;;;;;;;4.24;51.14;99435.47;8349944;28;20233;-64
2022/02/12 07:05:11;;;;;;;14.83;8.00;;;;;;;4.52;50.59;99420.22;8350298;28;20232;-64
2022/02/12 07:09:14;;;;;;;18.43;7.80;;;;;;;4.34;50.93;99420.13;8349712;28;20239;-63
2022/02/12 07:13:17;;;;;;;15.93;7.73;;;;;;;4.47;50.70;99425.34;8349837;28;20247;-64
2022/02/12 07:17:21;;;;;;;12.63;8.03;;;;;;;4.50;50.83;99434.75;8349925;28;20236;-64
2022/02/12 07:21:24;;;;;;;17.53;8.77;;;;;;;4.40;51.11;99435.53;8351201;28;20236;-65
2022/02/12 07:25:27;;;;;;;16.13;8.10;;;;;;;4.52;50.60;99434.75;8350010;28;20424;-63
2022/02/12 07:29:30;;;;;;;11.47;7.27;;;;;;;4.55;50.67;99438.19;8349104;28;20231;-63
2022/02/12 07:33:35;;;;;;;11.33;6.60;;;;;;;4.59;51.61;99437.34;8349125;28;20228;-63
2022/02/12 07:37:38;;;;;;;12.10;6.83;;;;;;;4.69;50.72;99425.41;8348659;28;20236;-63
2022/02/12 07:41:41;;;;;;;18.87;7.37;;;;;;;4.61;51.12;99427.94;8348893;28;20240;-63
2022/02/12 07:45:46;;;;;;;11.13;6.00;;;;;;;4.71;51.64;99428.81;8348558;28;20422;-63
2022/02/12 07:49:51;;;;;;;10.80;5.93;;;;;;;4.76;51.76;99439.09;8348155;28;20432;-63
2022/02/12 07:53:56;;;;;;;12.80;5.83;;;;;;;4.80;52.01;99435.72;8347000;28;20231;-63
2022/02/12 07:58:00;;;;;;;14.80;8.23;;;;;;;4.88;52.61;99427.16;8347542;28;20434;-63
2022/02/12 08:02:03;;;;;;;13.03;6.03;;;;;;;5.04;52.73;99416.91;8347402;28;20228;-63
2022/02/12 08:07:27;;;;;;;13.17;6.40;;;;;;;5.16;52.40;99421.19;8347437;28;20254;-63
2022/02/12 08:14:52;;;;;;;15.80;6.40;;;;;;;6.97;48.83;99428.44;8344986;28;20244;-64
2022/02/12 08:18:55;;;;;;;10.47;6.17;;;;;;;7.10;48.69;99424.06;8347358;28;20234;-64
2022/02/12 08:23:00;;;;;;;10.00;5.87;;;;;;;7.76;46.92;99432.97;8347334;28;20232;-63
2022/02/12 08:27:03;;;;;;;12.60;5.63;;;;;;;8.83;45.08;99425.72;8347203;28;20239;-63
2022/02/12 08:31:06;;;;;;;9.30;5.70;;;;;;;8.33;44.92;99416.88;8346710;28;20231;-63
2022/02/12 08:35:11;;;;;;;12.57;6.07;;;;;;;8.45;44.66;99414.16;8347007;28;20232;-63
2022/02/12 08:39:15;;;;;;;12.40;6.07;;;;;;;9.76;43.23;99404.44;8341090;28;20227;-64
2022/02/12 08:43:20;;;;;;;10.70;5.27;;;;;;;10.04;40.92;99404.78;8347610;28;20531;-63
2022/02/12 08:47:22;;;;;;;9.63;4.77;;;;;;;9.87;42.72;99402.50;8347416;28;20236;-63
2022/02/12 08:51:25;;;;;;;9.30;4.57;;;;;;;10.15;41.32;99394.22;8347666;28;20248;-64
2022/02/12 08:55:30;;;;;;;9.23;5.07;;;;;;;9.87;41.24;99392.16;8347038;28;20336;-64
2022/02/12 08:59:34;;;;;;;8.13;4.43;;;;;;;12.66;47.60;99380.22;8347218;28;20243;-67
2022/02/12 09:03:43;;;;;;;9.60;4.23;;;;;;;10.98;38.45;99383.81;8349643;28;20291;-66
2022/02/12 09:07:46;;;;;;;6.93;3.80;;;;;;;10.65;40.32;99387.16;8353796;28;20239;-64
2022/02/12 09:11:50;;;;;;;6.27;3.67;;;;;;;11.43;38.34;99392.22;8353802;28;20243;-64
2022/02/12 09:15:55;;;;;;;8.60;3.53;;;;;;;11.98;37.19;99378.75;8353614;28;20232;-64
2022/02/12 09:19:58;;;;;;;6.93;3.40;;;;;;;11.32;38.23;99378.69;8353464;28;20238;-64
2022/02/12 09:24:01;;;;;;;7.07;3.00;;;;;;;12.17;37.18;99379.09;8353052;28;20232;-64
2022/02/12 09:28:06;;;;;;;7.13;3.27;;;;;;;9.65;41.70;99380.47;8352814;28;20542;-64
2022/02/12 09:32:09;;;;;;;8.07;3.60;;;;;;;10.86;39.08;99369.41;8352939;28;20254;-64
2022/02/12 09:36:12;;;;;;;9.13;3.17;;;;;;;12.55;37.30;99369.31;8352224;28;20228;-64
2022/02/12 09:40:15;;;;;;;6.90;3.10;;;;;;;12.49;37.18;99370.34;8351997;28;20228;-64
2022/02/12 09:44:19;;;;;;;7.43;3.70;;;;;;;11.34;37.78;99371.72;8352208;28;20230;-64
2022/02/12 09:48:22;;;;;;;6.57;3.13;;;;;;;11.78;37.14;99368.84;8351649;28;20235;-64
2022/02/12 09:52:29;;;;;;;7.90;3.13;;;;;;;12.74;35.63;99359.19;8351783;28;20227;-64
2022/02/12 09:56:35;;;;;;;6.70;3.00;;;;;;;11.68;36.59;99368.25;8343543;28;20232;-64
2022/02/12 10:00:41;;;;;;;6.80;3.50;;;;;;;13.28;35.07;99353.97;8351878;28;20232;-64
2022/02/12 10:04:44;;;;;;;6.67;3.00;;;;;;;12.36;36.52;99366.41;8351696;28;20543;-64
2022/02/12 10:09:05;;;;;;;6.60;3.40;;;;;;;12.59;36.53;99350.13;8351544;28;20232;-64
2022/02/12 10:13:14;;;;;;;6.77;3.80;;;;;;;12.01;37.03;99344.88;8351911;28;20228;-64
2022/02/12 10:17:23;;;;;;;6.97;3.23;;;;;;;11.60;38.81;99341.66;8350826;28;20239;-63
2022/02/12 10:21:26;;;;;;;6.07;3.27;;;;;;;11.70;37.29;99328.38;8350459;28;20232;-65
2022/02/12 10:25:30;;;;;;;8.50;3.20;;;;;;;11.83;37.79;99328.91;8350424;28;20554;-65
2022/02/12 10:29:33;;;;;;;6.67;3.37;;;;;;;10.88;39.19;99331.34;8350022;28;20224;-65
2022/02/12 10:33:43;;;;;;;6.53;3.40;;;;;;;10.26;42.08;99324.94;8349640;28;20569;-65
2022/02/12 10:37:48;;;;;;;6.83;3.40;;;;;;;10.18;40.97;99334.59;8348540;28;20234;-65
2022/02/12 10:42:05;;;;;;;5.13;3.27;;;;;;;11.02;39.51;99320.66;8348567;28;20570;-65
2022/02/12 10:46:08;;;;;;;7.10;3.50;;;;;;;10.48;40.69;99301.19;8349921;28;20555;-65
2022/02/12 10:50:14;;;;;;;6.17;3.27;;;;;;;11.06;39.80;99293.75;8349898;28;20422;-65
2022/02/12 10:54:19;;;;;;;5.47;3.40;;;;;;;11.97;43.23;99284.41;8348914;28;20228;-69
2022/02/12 10:58:22;;;;;;;6.90;3.53;;;;;;;12.49;37.25;99275.06;8346190;28;20425;-65
2022/02/12 11:02:26;;;;;;;7.93;3.70;;;;;;;12.74;36.17;99268.22;8346669;28;20428;-65
2022/02/12 11:06:31;;;;;;;6.90;3.77;;;;;;;12.23;36.95;99262.88;8347433;28;20303;-65
2022/02/12 11:10:35;;;;;;;7.27;3.50;;;;;;;12.87;36.25;99246.97;8348592;28;20227;-65
2022/02/12 11:14:38;;;;;;;6.37;4.40;;;;;;;11.75;37.82;99247.81;8347494;28;20231;-65
2022/02/12 11:18:42;;;;;;;6.00;3.53;;;;;;;11.22;38.59;99251.00;8346285;28;20224;-65
2022/02/12 11:22:47;;;;;;;5.60;3.27;;;;;;;11.78;37.19;99242.53;8348113;28;20231;-65
2022/02/12 11:26:50;;;;;;;6.47;3.30;;;;;;;10.44;39.72;99242.59;8347173;28;20440;-65
2022/02/12 11:31:17;;;;;;;6.77;3.50;;;;;;;10.69;39.86;99235.91;8348152;28;20415;-65
2022/02/12 11:35:23;;;;;;;7.60;3.50;;;;;;;10.42;39.12;99215.88;8347965;28;20224;-65
2022/02/12 11:39:29;;;;;;;6.37;3.30;;;;;;;10.44;39.41;99220.13;8345922;28;20331;-65
2022/02/12 11:43:36;;;;;;;7.33;3.20;;;;;;;10.83;37.91;99209.66;8347657;28;20230;-65
2022/02/12 11:48:18;;;;;;;5.63;3.37;;;;;;;11.53;36.96;99190.50;8346868;28;20294;-65
2022/02/12 11:52:53;;;;;;;6.57;3.60;;;;;;;11.09;37.78;99180.47;8348679;28;20227;-65
2022/02/12 11:56:58;;;;;;;6.70;3.53;;;;;;;10.77;37.71;99176.13;8342785;28;20224;-65
2022/02/12 12:01:01;;;;;;;6.17;3.40;;;;;;;10.84;36.59;99166.47;8347909;28;20235;-66
2022/02/12 12:05:13;;;;;;;6.40;3.43;;;;;;;10.61;37.32;99173.09;8348175;28;20254;-65
2022/02/12 12:09:16;;;;;;;5.73;3.40;;;;;;;10.48;37.97;99157.00;8348397;28;20236;-65
2022/02/12 12:13:44;;;;;;;6.43;3.03;;;;;;;10.20;38.54;99150.75;8347839;28;20429;-65
2022/02/12 12:17:55;;;;;;;7.10;3.57;;;;;;;9.95;39.32;99140.97;8346786;28;20228;-65
2022/02/12 12:21:59;;;;;;;5.17;3.03;;;;;;;10.26;38.56;99128.19;8347483;28;20232;-65
2022/02/12 12:26:04;;;;;;;6.27;3.20;;;;;;;9.42;39.17;99119.75;8344572;28;20240;-65
2022/02/12 12:34:33;;;;;;;7.23;3.17;;;;;;;9.72;38.35;99113.91;8308452;28;20235;-65
2022/02/12 12:38:38;;;;;;;4.33;3.17;;;;;;;9.99;37.14;99103.78;8314904;28;20247;-65
2022/02/12 12:42:41;;;;;;;11.87;3.07;;;;;;;9.89;36.74;99100.56;8315138;28;20237;-65
2022/02/12 12:46:49;;;;;;;6.80;2.60;;;;;;;9.67;36.84;99094.19;8314588;28;20239;-65
2022/02/12 12:50:53;;;;;;;7.57;2.70;;;;;;;9.28;37.08;99083.84;8314650;28;20286;-65
2022/02/12 12:54:57;;;;;;;27.70;2.77;;;;;;;9.09;36.11;99088.56;8314877;28;20422;-65
2022/02/12 12:59:09;;;;;;;4.43;2.40;;;;;;;9.47;35.53;99081.72;8314739;28;20232;-65
2022/02/12 13:03:17;;;;;;;4.63;2.10;;;;;;;9.54;34.92;99078.13;8332841;28;20235;-65
2022/02/12 13:07:21;;;;;;;4.43;1.80;;;;;;;10.23;34.51;99068.69;8347270;28;20238;-65
2022/02/12 13:11:28;;;;;;;1.97;1.30;;;;;;;10.37;32.22;99051.09;8346243;28;20291;-65
2022/02/12 13:15:37;;;;;;;3.43;1.50;;;;;;;10.03;32.71;99051.06;8343833;28;20503;-66
2022/02/12 13:19:41;;;;;;;1.70;1.20;;;;;;;10.62;31.71;99041.81;8346745;28;20547;-65
2022/02/12 13:23:46;;;;;;;1.57;1.07;;;;;;;9.60;31.02;99046.94;8347052;28;20236;-65
2022/02/12 13:27:50;;;;;;;2.03;1.13;;;;;;;9.69;32.99;99045.84;8346147;28;20239;-65
2022/02/12 13:31:56;;;;;;;2.63;1.80;;;;;;;10.10;32.50;99038.84;8346339;28;20228;-65
2022/02/12 13:36:01;;;;;;;3.80;2.10;;;;;;;10.61;32.56;99028.03;8345755;28;20228;-65
2022/02/12 13:40:05;;;;;;;2.43;1.40;;;;;;;10.48;31.98;99022.31;8346746;28;20232;-65
2022/02/12 13:44:08;;;;;;;2.77;1.50;;;;;;;10.22;32.07;99011.78;8346840;28;20239;-65
2022/02/12 13:48:14;;;;;;;2.43;1.67;;;;;;;10.52;31.90;99007.56;8346877;28;20244;-65
2022/02/12 13:52:20;;;;;;;4.50;2.30;;;;;;;10.74;32.96;99005.22;8351466;28;20238;-65
2022/02/12 13:56:36;;;;;;;3.57;2.07;;;;;;;10.57;32.79;98997.94;8352562;28;20236;-65
2022/02/12 14:00:40;;;;;;;3.67;1.90;;;;;;;10.66;31.50;98995.09;8352053;28;20244;-65
2022/02/12 14:04:43;;;;;;;4.03;2.10;;;;;;;10.82;31.74;98990.31;8351621;28;20231;-65
2022/02/12 14:08:47;;;;;;;2.63;1.40;;;;;;;10.70;31.63;98986.31;8351718;28;20243;-65
2022/02/12 14:12:50;;;;;;;2.67;1.50;;;;;;;10.78;31.01;98983.50;8351905;28;20387;-65
2022/02/12 14:16:53;;;;;;;2.97;1.80;;;;;;;11.10;30.83;98990.34;8351515;28;20231;-65
2022/02/12 14:20:57;;;;;;;3.97;1.80;;;;;;;10.44;31.65;98973.25;8351492;28;20548;-65
2022/02/12 14:25:03;;;;;;;3.87;1.80;;;;;;;9.70;33.33;98968.22;8351244;28;20232;-65
2022/02/12 14:29:07;;;;;;;3.63;2.00;;;;;;;9.25;34.79;98980.50;8351331;28;20232;-65
2022/02/12 14:33:10;;;;;;;3.93;1.97;;;;;;;9.96;34.05;98958.97;8350957;28;20235;-65
2022/02/12 14:37:13;;;;;;;5.00;2.50;;;;;;;9.60;35.28;98966.78;8350957;28;20251;-65
2022/02/12 14:41:18;;;;;;;4.13;2.43;;;;;;;9.57;35.35;98954.75;8350370;28;20232;-64
2022/02/12 14:45:21;;;;;;;3.53;2.37;;;;;;;9.34;35.86;98957.03;8348252;28;20228;-65
2022/02/12 14:49:24;;;;;;;3.17;2.30;;;;;;;9.47;35.66;98945.53;8350337;28;20236;-65
2022/02/12 14:53:28;;;;;;;6.40;2.90;;;;;;;9.48;36.20;98938.59;8350357;28;20227;-65
2022/02/12 14:57:34;;;;;;;3.13;2.30;;;;;;;10.08;35.32;98935.34;8350240;28;20243;-65
2022/02/12 15:01:36;;;;;;;5.03;2.50;;;;;;;9.15;36.96;98921.28;8349416;28;20220;-65
2022/02/12 15:05:39;;;;;;;5.93;2.60;;;;;;;9.04;37.03;98918.09;8349949;28;20251;-65
2022/02/12 15:09:43;;;;;;;2.97;2.07;;;;;;;9.17;37.19;98905.75;8347043;28;20242;-64
2022/02/12 15:13:47;;;;;;;3.20;2.20;;;;;;;9.48;36.92;98907.56;8349758;28;20236;-64
2022/02/12 15:17:50;;;;;;;4.03;2.37;;;;;;;9.27;36.98;98899.47;8348952;28;20228;-64
2022/02/12 15:21:53;;;;;;;5.50;2.50;;;;;;;9.50;36.63;98891.16;8347128;28;20232;-65
2022/02/12 15:25:57;;;;;;;6.87;2.70;;;;;;;8.77;37.52;98893.75;8349007;28;20236;-64
2022/02/12 15:30:02;;;;;;;5.43;2.90;;;;;;;8.84;38.34;98884.13;8347489;28;20224;-65
2022/02/12 15:34:05;;;;;;;5.00;2.60;;;;;;;9.03;37.87;98879.41;8347932;28;20251;-65
2022/02/12 15:38:09;;;;;;;4.33;2.63;;;;;;;9.09;37.91;98871.50;8348587;28;20303;-65
2022/02/12 15:42:12;;;;;;;6.67;3.93;;;;;;;8.86;38.33;98874.63;8347771;28;20228;-65
2022/02/12 15:46:17;;;;;;;6.30;3.57;;;;;;;8.76;38.00;98867.06;8348213;28;20232;-64
2022/02/12 15:50:20;;;;;;;6.07;2.80;;;;;;;8.97;37.94;98860.56;8348567;28;20232;-64
2022/02/12 15:54:23;;;;;;;3.67;2.60;;;;;;;8.93;37.87;98860.66;8347749;28;20232;-65
2022/02/12 15:58:26;;;;;;;6.33;2.70;;;;;;;8.78;37.70;98847.22;8347760;28;20236;-66
2022/02/12 16:02:34;;;;;;;6.07;2.80;;;;;;;8.46;37.92;98863.44;8345109;28;20224;-65
2022/02/12 16:06:37;;;;;;;4.10;2.47;;;;;;;8.69;37.56;98857.75;8347666;28;20235;-65
2022/02/12 16:10:40;;;;;;;4.07;2.97;;;;;;;8.62;37.89;98858.78;8348138;28;20246;-64
2022/02/12 16:14:43;;;;;;;4.47;3.20;;;;;;;9.03;37.89;98850.97;8346863;28;20232;-64
2022/02/12 16:18:49;;;;;;;5.23;3.20;;;;;;;8.76;37.99;98853.31;8347760;28;20239;-64
2022/02/12 16:22:54;;;;;;;7.33;3.70;;;;;;;8.84;37.84;98845.38;8347867;28;20424;-65
2022/02/12 16:26:57;;;;;;;6.10;3.37;;;;;;;8.68;38.14;98861.25;8346814;28;20236;-64
2022/02/12 16:31:00;;;;;;;6.43;3.07;;;;;;;8.71;38.20;98866.31;8347550;28;20239;-65
2022/02/12 16:35:05;;;;;;;5.30;3.17;;;;;;;8.57;38.39;98856.31;8347464;28;20228;-64
2022/02/12 16:39:08;;;;;;;4.67;3.30;;;;;;;8.56;38.44;98853.75;8346683;28;20232;-65
2022/02/12 16:43:11;;;;;;;6.07;3.10;;;;;;;8.50;38.63;98862.47;8346748;28;20236;-65
2022/02/12 16:47:14;;;;;;;6.47;3.80;;;;;;;8.01;39.33;98858.28;8347099;28;20231;-64
2022/02/12 16:51:19;;;;;;;4.90;3.17;;;;;;;8.33;38.57;98867.97;8345783;28;20235;-65
2022/02/12 16:55:25;;;;;;;6.27;3.23;;;;;;;8.30;38.98;98869.75;8344383;28;20236;-65
2022/02/12 16:59:27;;;;;;;7.40;3.40;;;;;;;8.27;39.07;98873.25;8346817;28;20266;-65
2022/02/12 17:03:30;;;;;;;4.80;3.40;;;;;;;8.15;39.47;98869.19;8346350;28;20224;-65
2022/02/12 17:07:40;;;;;;;6.00;3.57;;;;;;;8.20;39.40;98866.50;8346058;28;20244;-65
2022/02/12 17:11:43;;;;;;;7.87;4.40;;;;;;;7.30;40.75;98861.31;8346405;28;20224;-65
2022/02/12 17:15:50;;;;;;;8.97;5.40;;;;;;;7.78;40.34;98862.16;8346786;28;20558;-65
2022/02/12 17:19:52;;;;;;;11.50;8.00;;;;;;;7.63;40.58;98855.59;8346202;28;20236;-64
2022/02/12 17:23:57;;;;;;;7.90;4.80;;;;;;;7.83;40.20;98862.09;8343658;28;20559;-64
2022/02/12 17:28:00;;;;;;;6.50;4.57;;;;;;;8.08;39.74;98866.78;8352376;28;20431;-65
2022/02/12 17:32:04;;;;;;;6.67;3.80;;;;;;;7.67;40.77;98868.41;8351981;28;20224;-65
2022/02/12 17:36:07;;;;;;;6.70;3.63;;;;;;;7.75;41.00;98864.81;8352270;28;20231;-65
2022/02/12 17:40:13;;;;;;;5.77;3.80;;;;;;;7.92;40.40;98868.78;8352108;28;20235;-65
2022/02/12 17:44:17;;;;;;;5.67;4.13;;;;;;;8.04;40.41;98853.09;8351708;28;20246;-65
2022/02/12 17:48:20;;;;;;;6.93;4.57;;;;;;;8.01;40.42;98859.16;8350755;28;20236;-65
2022/02/12 17:52:23;;;;;;;7.70;5.07;;;;;;;7.85;41.14;98855.16;8349401;28;20232;-65
2022/02/12 17:56:28;;;;;;;10.30;6.03;;;;;;;8.08;40.71;98859.03;8352867;28;20236;-65
2022/02/12 18:00:31;;;;;;;10.77;7.90;;;;;;;7.53;42.12;98860.91;8318785;28;20236;-66
2022/02/12 18:04:34;;;;;;;10.57;6.90;;;;;;;7.37;42.34;98844.88;8348487;28;20232;-65
2022/02/12 18:12:55;;;;;;;9.93;7.00;;;;;;;7.65;42.11;98829.75;8374190;28;20539;-65
2022/02/12 18:16:58;;;;;;;12.77;7.97;;;;;;;7.83;41.58;98834.56;8384813;28;20227;-64
2022/02/12 18:21:01;;;;;;;9.77;6.33;;;;;;;7.64;42.52;98828.06;8381729;28;20271;-64
2022/02/12 18:25:08;;;;;;;9.00;6.27;;;;;;;7.81;42.39;98828.59;8353607;28;20246;-64
2022/02/12 18:29:16;;;;;;;11.57;8.73;;;;;;;7.68;42.36;98821.97;8361099;28;20431;-64
2022/02/12 18:33:19;;;;;;;9.90;8.10;;;;;;;8.07;42.49;98813.47;8348937;28;20414;-64
2022/02/12 18:37:22;;;;;;;13.47;9.43;;;;;;;8.16;42.43;98811.53;8350728;28;20228;-64
2022/02/12 18:41:27;;;;;;;13.83;10.60;;;;;;;8.10;42.23;98816.84;8350508;28;20396;-64
2022/02/12 18:45:31;;;;;;;16.63;11.13;;;;;;;8.14;42.47;98818.47;8350409;28;20244;-64
2022/02/12 18:49:35;;;;;;;16.87;10.87;;;;;;;8.17;42.26;98805.50;8350139;28;20431;-64
2022/02/12 18:53:39;;;;;;;16.20;11.17;;;;;;;8.05;42.48;98805.75;8350176;28;20432;-64
2022/02/12 18:57:42;;;;;;;16.73;10.93;;;;;;;8.11;42.55;98800.50;8350692;28;20232;-64
2022/02/12 19:01:47;;;;;;;13.40;10.07;;;;;;;8.00;42.49;98794.69;8350229;28;20429;-64
2022/02/12 19:05:50;;;;;;;24.57;11.83;;;;;;;7.72;42.90;98782.34;8350318;28;20424;-65
2022/02/12 19:09:53;;;;;;;25.30;13.43;;;;;;;7.80;42.71;98783.03;8349993;28;20238;-65
2022/02/12 19:13:59;;;;;;;21.50;13.23;;;;;;;7.94;42.79;98782.78;8350150;28;20235;-65
2022/02/12 19:18:03;;;;;;;17.40;12.73;;;;;;;7.86;42.92;98783.81;8349661;28;20235;-64
2022/02/12 19:22:06;;;;;;;18.43;13.47;;;;;;;7.90;43.10;98781.16;8349831;28;20238;-64
2022/02/12 19:26:11;;;;;;;19.33;12.93;;;;;;;7.85;43.88;98782.97;8349511;28;20236;-64
2022/02/12 19:30:14;;;;;;;17.53;12.80;;;;;;;7.64;44.03;98782.50;8349367;28;20415;-64
2022/02/12 19:34:18;;;;;;;20.33;12.97;;;;;;;7.68;43.65;98774.72;8349433;28;20431;-64